Terminal Aerodrome Forecast
Issued by NWS Sterling, VA

Current Version | Previous Version | Graphics & Text | Print | Product List | Glossary On
Versions: 1 2 3 4 5 6 7 8 9 10 11 12 13 14 15 16 17 18 19 20 21
000
FTUS41 KLWX 231500 AAA
TAFMRB
TAF AMD
KMRB 231504Z 2315/2412 00000KT 1/2SM -DZ FG OVC003
     FM231700 00000KT 1SM -DZ BR SCT003 OVC005
     FM232300 00000KT 3SM -DZ BR OVC003
     FM240200 00000KT 3SM -RA OVC001
     FM240600 00000KT 3SM -RA OVC003
     FM241100 VRB03KT 6SM RA OVC003=

USA.gov is the U.S. government's official web portal to all federal, state and local government web resources and services.